Aviation Digital Data Service (ADDS)

Output produced by METARs form (2348 UTC 30 November 2022)
found at http://aviationweather.gov/metar/data/
 
KELP 302335Z 0100/0124 09008KT P6SM FEW210 BKN250 
     FM011800 20006KT P6SM BKN250